sensor_id;sensor_type;location;lat;lon;timestamp;temperature;humidity
65406;DHT22;52016;51.228;-2.322;2023-02-01T00:02:43;6.90;74.50
65406;DHT22;52016;51.228;-2.322;2023-02-01T00:06:25;6.90;74.50
65406;DHT22;52016;51.228;-2.322;2023-02-01T00:10:08;6.90;74.50
65406;DHT22;52016;51.228;-2.322;2023-02-01T00:13:50;6.90;74.60
65406;DHT22;52016;51.228;-2.322;2023-02-01T00:17:33;6.90;74.70
65406;DHT22;52016;51.228;-2.322;2023-02-01T00:21:17;6.90;74.60
65406;DHT22;52016;51.228;-2.322;2023-02-01T00:24:59;7.00;74.70
65406;DHT22;52016;51.228;-2.322;2023-02-01T00:28:41;6.90;74.60
65406;DHT22;52016;51.228;-2.322;2023-02-01T00:32:23;6.90;74.50
65406;DHT22;52016;51.228;-2.322;2023-02-01T00:36:07;6.90;74.60
65406;DHT22;52016;51.228;-2.322;2023-02-01T00:39:51;7.00;74.60
65406;DHT22;52016;51.228;-2.322;2023-02-01T00:43:36;7.00;74.50
65406;DHT22;52016;51.228;-2.322;2023-02-01T00:47:19;7.00;74.50
65406;DHT22;52016;51.228;-2.322;2023-02-01T00:51:04;7.00;74.50
65406;DHT22;52016;51.228;-2.322;2023-02-01T00:54:53;7.10;74.50
65406;DHT22;52016;51.228;-2.322;2023-02-01T00:58:35;7.10;74.40
65406;DHT22;52016;51.228;-2.322;2023-02-01T01:02:18;7.10;74.40
65406;DHT22;52016;51.228;-2.322;2023-02-01T01:06:07;7.00;74.40
65406;DHT22;52016;51.228;-2.322;2023-02-01T01:09:50;7.00;74.50
65406;DHT22;52016;51.228;-2.322;2023-02-01T01:13:33;7.00;74.60
65406;DHT22;52016;51.228;-2.322;2023-02-01T01:17:16;6.90;74.50
65406;DHT22;52016;51.228;-2.322;2023-02-01T01:21:01;6.90;74.60
65406;DHT22;52016;51.228;-2.322;2023-02-01T01:24:44;6.80;74.70
65406;DHT22;52016;51.228;-2.322;2023-02-01T01:28:26;6.80;74.80
65406;DHT22;52016;51.228;-2.322;2023-02-01T01:32:14;6.80;74.90
65406;DHT22;52016;51.228;-2.322;2023-02-01T01:35:56;6.80;75.40
65406;DHT22;52016;51.228;-2.322;2023-02-01T01:39:38;6.80;75.10
65406;DHT22;52016;51.228;-2.322;2023-02-01T01:43:20;6.70;75.20
65406;DHT22;52016;51.228;-2.322;2023-02-01T01:47:05;6.70;75.80
65406;DHT22;52016;51.228;-2.322;2023-02-01T01:50:54;6.80;75.50
65406;DHT22;52016;51.228;-2.322;2023-02-01T01:54:47;6.80;75.50
65406;DHT22;52016;51.228;-2.322;2023-02-01T01:58:31;6.80;75.30
65406;DHT22;52016;51.228;-2.322;2023-02-01T02:02:15;6.90;75.20
65406;DHT22;52016;51.228;-2.322;2023-02-01T02:05:59;6.90;75.10
65406;DHT22;52016;51.228;-2.322;2023-02-01T02:09:45;6.90;75.00
65406;DHT22;52016;51.228;-2.322;2023-02-01T02:13:43;6.90;75.00
65406;DHT22;52016;51.228;-2.322;2023-02-01T02:42:27;6.90;74.90
65406;DHT22;52016;51.228;-2.322;2023-02-01T02:46:37;7.00;75.10
65406;DHT22;52016;51.228;-2.322;2023-02-01T02:50:46;7.00;75.00
65406;DHT22;52016;51.228;-2.322;2023-02-01T02:54:50;7.00;75.10
65406;DHT22;52016;51.228;-2.322;2023-02-01T02:58:35;7.00;75.10
65406;DHT22;52016;51.228;-2.322;2023-02-01T03:02:37;7.00;75.20
65406;DHT22;52016;51.228;-2.322;2023-02-01T03:06:38;7.00;75.30
65406;DHT22;52016;51.228;-2.322;2023-02-01T03:10:40;7.00;75.40
65406;DHT22;52016;51.228;-2.322;2023-02-01T03:14:25;7.00;75.50
65406;DHT22;52016;51.228;-2.322;2023-02-01T03:18:15;7.00;75.50
65406;DHT22;52016;51.228;-2.322;2023-02-01T03:22:06;6.90;75.70
65406;DHT22;52016;51.228;-2.322;2023-02-01T03:25:51;6.90;75.70
65406;DHT22;52016;51.228;-2.322;2023-02-01T03:29:44;6.90;75.90
65406;DHT22;52016;51.228;-2.322;2023-02-01T03:33:28;6.90;75.80
65406;DHT22;52016;51.228;-2.322;2023-02-01T03:37:25;6.90;75.80
65406;DHT22;52016;51.228;-2.322;2023-02-01T03:41:28;6.90;75.90
65406;DHT22;52016;51.228;-2.322;2023-02-01T03:45:27;6.90;76.00
65406;DHT22;52016;51.228;-2.322;2023-02-01T03:49:26;7.00;76.10
65406;DHT22;52016;51.228;-2.322;2023-02-01T03:53:14;7.00;76.00
65406;DHT22;52016;51.228;-2.322;2023-02-01T03:57:00;7.10;76.00
65406;DHT22;52016;51.228;-2.322;2023-02-01T04:00:54;7.10;76.00
65406;DHT22;52016;51.228;-2.322;2023-02-01T04:04:37;7.20;75.90
65406;DHT22;52016;51.228;-2.322;2023-02-01T04:08:19;7.30;75.70
65406;DHT22;52016;51.228;-2.322;2023-02-01T04:12:01;7.40;75.60
65406;DHT22;52016;51.228;-2.322;2023-02-01T04:15:44;7.30;75.50
65406;DHT22;52016;51.228;-2.322;2023-02-01T04:19:27;7.30;75.60
65406;DHT22;52016;51.228;-2.322;2023-02-01T04:23:09;7.40;75.60
65406;DHT22;52016;51.228;-2.322;2023-02-01T04:26:51;7.40;75.60
65406;DHT22;52016;51.228;-2.322;2023-02-01T04:30:33;7.50;75.60
65406;DHT22;52016;51.228;-2.322;2023-02-01T04:34:15;7.60;75.60
65406;DHT22;52016;51.228;-2.322;2023-02-01T04:37:57;7.70;75.70
65406;DHT22;52016;51.228;-2.322;2023-02-01T04:41:39;7.70;75.60
65406;DHT22;52016;51.228;-2.322;2023-02-01T04:45:21;7.70;75.90
65406;DHT22;52016;51.228;-2.322;2023-02-01T04:49:03;7.70;76.00
65406;DHT22;52016;51.228;-2.322;2023-02-01T04:52:45;7.70;76.00
65406;DHT22;52016;51.228;-2.322;2023-02-01T04:56:27;7.70;76.00
65406;DHT22;52016;51.228;-2.322;2023-02-01T05:00:09;7.80;76.00
65406;DHT22;52016;51.228;-2.322;2023-02-01T05:03:51;7.70;76.10
65406;DHT22;52016;51.228;-2.322;2023-02-01T05:07:33;7.70;76.20
65406;DHT22;52016;51.228;-2.322;2023-02-01T05:11:15;7.60;76.30
65406;DHT22;52016;51.228;-2.322;2023-02-01T05:15:16;7.60;76.30
65406;DHT22;52016;51.228;-2.322;2023-02-01T05:18:58;7.60;76.30
65406;DHT22;52016;51.228;-2.322;2023-02-01T05:22:41;7.60;76.30
65406;DHT22;52016;51.228;-2.322;2023-02-01T05:26:24;7.50;76.20
65406;DHT22;52016;51.228;-2.322;2023-02-01T05:30:08;7.50;76.20
65406;DHT22;52016;51.228;-2.322;2023-02-01T05:33:50;7.50;76.20
65406;DHT22;52016;51.228;-2.322;2023-02-01T05:37:32;7.50;76.30
65406;DHT22;52016;51.228;-2.322;2023-02-01T05:41:14;7.60;76.40
65406;DHT22;52016;51.228;-2.322;2023-02-01T05:44:56;7.60;76.50
65406;DHT22;52016;51.228;-2.322;2023-02-01T05:48:39;7.50;76.20
65406;DHT22;52016;51.228;-2.322;2023-02-01T05:52:21;7.50;76.20
65406;DHT22;52016;51.228;-2.322;2023-02-01T05:56:03;7.50;76.10
65406;DHT22;52016;51.228;-2.322;2023-02-01T05:59:45;7.50;76.20
65406;DHT22;52016;51.228;-2.322;2023-02-01T06:03:29;7.40;76.10
65406;DHT22;52016;51.228;-2.322;2023-02-01T06:07:11;7.40;76.10
65406;DHT22;52016;51.228;-2.322;2023-02-01T06:11:00;7.30;76.20
65406;DHT22;52016;51.228;-2.322;2023-02-01T06:14:43;7.30;76.20
65406;DHT22;52016;51.228;-2.322;2023-02-01T06:18:25;7.30;76.20
65406;DHT22;52016;51.228;-2.322;2023-02-01T06:22:07;7.20;76.10
65406;DHT22;52016;51.228;-2.322;2023-02-01T06:25:57;7.20;76.10
65406;DHT22;52016;51.228;-2.322;2023-02-01T06:29:40;7.10;76.10
65406;DHT22;52016;51.228;-2.322;2023-02-01T06:33:22;7.20;76.10
65406;DHT22;52016;51.228;-2.322;2023-02-01T06:37:04;7.20;76.10
65406;DHT22;52016;51.228;-2.322;2023-02-01T06:40:52;7.20;76.10
65406;DHT22;52016;51.228;-2.322;2023-02-01T06:44:34;7.20;76.10
65406;DHT22;52016;51.228;-2.322;2023-02-01T06:48:17;7.10;76.30
65406;DHT22;52016;51.228;-2.322;2023-02-01T06:51:59;7.20;76.40
65406;DHT22;52016;51.228;-2.322;2023-02-01T06:55:42;7.10;76.70
65406;DHT22;52016;51.228;-2.322;2023-02-01T06:59:32;7.10;76.70
65406;DHT22;52016;51.228;-2.322;2023-02-01T07:03:14;7.10;76.50
65406;DHT22;52016;51.228;-2.322;2023-02-01T07:06:56;7.10;76.50
65406;DHT22;52016;51.228;-2.322;2023-02-01T07:10:38;7.00;76.50
65406;DHT22;52016;51.228;-2.322;2023-02-01T07:14:20;7.00;76.70
65406;DHT22;52016;51.228;-2.322;2023-02-01T07:18:02;7.00;76.70
65406;DHT22;52016;51.228;-2.322;2023-02-01T07:21:44;7.00;76.80
65406;DHT22;52016;51.228;-2.322;2023-02-01T07:25:26;7.00;76.80
65406;DHT22;52016;51.228;-2.322;2023-02-01T07:29:08;7.00;76.80
65406;DHT22;52016;51.228;-2.322;2023-02-01T07:32:50;7.10;77.00
65406;DHT22;52016;51.228;-2.322;2023-02-01T07:36:32;7.10;77.00
65406;DHT22;52016;51.228;-2.322;2023-02-01T07:40:15;7.10;77.00
65406;DHT22;52016;51.228;-2.322;2023-02-01T07:43:57;7.10;77.00
65406;DHT22;52016;51.228;-2.322;2023-02-01T07:47:40;7.00;77.10
65406;DHT22;52016;51.228;-2.322;2023-02-01T07:51:22;7.00;76.90
65406;DHT22;52016;51.228;-2.322;2023-02-01T07:55:04;6.90;76.90
65406;DHT22;52016;51.228;-2.322;2023-02-01T07:58:50;6.90;76.90
65406;DHT22;52016;51.228;-2.322;2023-02-01T08:02:32;6.80;76.90
65406;DHT22;52016;51.228;-2.322;2023-02-01T08:06:15;6.70;76.90
65406;DHT22;52016;51.228;-2.322;2023-02-01T08:09:57;6.70;77.00
65406;DHT22;52016;51.228;-2.322;2023-02-01T08:13:39;6.60;77.30
65406;DHT22;52016;51.228;-2.322;2023-02-01T08:17:21;6.60;77.30
65406;DHT22;52016;51.228;-2.322;2023-02-01T08:21:12;6.60;77.40
65406;DHT22;52016;51.228;-2.322;2023-02-01T08:24:54;6.60;77.30
65406;DHT22;52016;51.228;-2.322;2023-02-01T08:28:45;6.70;77.40
65406;DHT22;52016;51.228;-2.322;2023-02-01T08:32:28;6.80;77.50
65406;DHT22;52016;51.228;-2.322;2023-02-01T08:36:11;6.90;77.40
65406;DHT22;52016;51.228;-2.322;2023-02-01T08:39:53;6.90;77.60
65406;DHT22;52016;51.228;-2.322;2023-02-01T08:43:35;6.90;77.70
65406;DHT22;52016;51.228;-2.322;2023-02-01T08:47:17;7.00;77.80
65406;DHT22;52016;51.228;-2.322;2023-02-01T08:51:07;7.00;77.70
65406;DHT22;52016;51.228;-2.322;2023-02-01T08:54:50;7.10;77.90
65406;DHT22;52016;51.228;-2.322;2023-02-01T08:58:32;7.20;77.70
65406;DHT22;52016;51.228;-2.322;2023-02-01T09:02:15;7.30;78.00
65406;DHT22;52016;51.228;-2.322;2023-02-01T09:06:06;7.40;77.70
65406;DHT22;52016;51.228;-2.322;2023-02-01T09:09:48;7.50;77.90
65406;DHT22;52016;51.228;-2.322;2023-02-01T09:13:30;7.50;77.70
65406;DHT22;52016;51.228;-2.322;2023-02-01T09:17:12;7.60;77.60
65406;DHT22;52016;51.228;-2.322;2023-02-01T09:20:55;7.60;77.80
65406;DHT22;52016;51.228;-2.322;2023-02-01T09:24:37;7.60;77.80
65406;DHT22;52016;51.228;-2.322;2023-02-01T09:28:19;7.70;77.80
65406;DHT22;52016;51.228;-2.322;2023-02-01T09:32:01;7.70;77.90
65406;DHT22;52016;51.228;-2.322;2023-02-01T09:35:45;7.80;78.00
65406;DHT22;52016;51.228;-2.322;2023-02-01T09:39:27;7.80;78.10
65406;DHT22;52016;51.228;-2.322;2023-02-01T09:47:23;8.00;78.00
65406;DHT22;52016;51.228;-2.322;2023-02-01T09:51:15;8.20;77.90
65406;DHT22;52016;51.228;-2.322;2023-02-01T09:55:03;8.20;77.70
65406;DHT22;52016;51.228;-2.322;2023-02-01T10:02:39;8.30;77.70
65406;DHT22;52016;51.228;-2.322;2023-02-01T10:07:05;8.40;77.70
65406;DHT22;52016;51.228;-2.322;2023-02-01T10:10:38;8.50;77.60
65406;DHT22;52016;51.228;-2.322;2023-02-01T10:19:19;8.60;77.50
65406;DHT22;52016;51.228;-2.322;2023-02-01T10:22:43;8.60;77.30
65406;DHT22;52016;51.228;-2.322;2023-02-01T10:26:54;8.60;77.20
65406;DHT22;52016;51.228;-2.322;2023-02-01T10:30:43;8.60;77.30
65406;DHT22;52016;51.228;-2.322;2023-02-01T10:34:31;8.70;77.30
65406;DHT22;52016;51.228;-2.322;2023-02-01T10:38:29;8.70;77.30
65406;DHT22;52016;51.228;-2.322;2023-02-01T10:42:11;8.70;77.40
65406;DHT22;52016;51.228;-2.322;2023-02-01T10:45:53;8.70;77.30
65406;DHT22;52016;51.228;-2.322;2023-02-01T10:57:30;8.90;77.00
65406;DHT22;52016;51.228;-2.322;2023-02-01T11:01:37;9.00;76.90
65406;DHT22;52016;51.228;-2.322;2023-02-01T11:05:20;9.10;76.50
65406;DHT22;52016;51.228;-2.322;2023-02-01T11:12:53;9.10;76.30
65406;DHT22;52016;51.228;-2.322;2023-02-01T11:16:38;9.30;76.30
65406;DHT22;52016;51.228;-2.322;2023-02-01T11:20:40;9.40;76.50
65406;DHT22;52016;51.228;-2.322;2023-02-01T11:24:35;9.60;76.10
65406;DHT22;52016;51.228;-2.322;2023-02-01T11:28:25;9.80;76.10
65406;DHT22;52016;51.228;-2.322;2023-02-01T11:32:10;9.80;75.60
65406;DHT22;52016;51.228;-2.322;2023-02-01T11:35:53;9.80;75.60
65406;DHT22;52016;51.228;-2.322;2023-02-01T11:39:35;9.80;75.70
65406;DHT22;52016;51.228;-2.322;2023-02-01T11:43:27;10.00;75.10
65406;DHT22;52016;51.228;-2.322;2023-02-01T11:47:39;10.10;74.80
65406;DHT22;52016;51.228;-2.322;2023-02-01T11:52:27;10.20;74.00
65406;DHT22;52016;51.228;-2.322;2023-02-01T12:08:15;10.20;73.60
65406;DHT22;52016;51.228;-2.322;2023-02-01T12:12:21;10.10;73.50
65406;DHT22;52016;51.228;-2.322;2023-02-01T12:32:25;10.00;73.50
65406;DHT22;52016;51.228;-2.322;2023-02-01T12:36:16;9.90;73.40
65406;DHT22;52016;51.228;-2.322;2023-02-01T12:51:50;9.80;73.70
65406;DHT22;52016;51.228;-2.322;2023-02-01T12:55:43;9.80;73.60
65406;DHT22;52016;51.228;-2.322;2023-02-01T12:59:36;9.80;73.70
65406;DHT22;52016;51.228;-2.322;2023-02-01T13:07:24;9.70;73.50
65406;DHT22;52016;51.228;-2.322;2023-02-01T13:11:37;9.70;73.60
65406;DHT22;52016;51.228;-2.322;2023-02-01T13:15:21;9.70;73.60
65406;DHT22;52016;51.228;-2.322;2023-02-01T13:19:13;9.80;73.70
65406;DHT22;52016;51.228;-2.322;2023-02-01T13:23:18;9.70;73.80
65406;DHT22;52016;51.228;-2.322;2023-02-01T13:27:03;9.80;73.80
65406;DHT22;52016;51.228;-2.322;2023-02-01T13:39:09;9.90;73.70
65406;DHT22;52016;51.228;-2.322;2023-02-01T13:43:00;9.90;73.70
65406;DHT22;52016;51.228;-2.322;2023-02-01T13:46:46;9.90;73.60
65406;DHT22;52016;51.228;-2.322;2023-02-01T13:50:29;9.90;73.60
65406;DHT22;52016;51.228;-2.322;2023-02-01T13:54:31;10.00;73.70
65406;DHT22;52016;51.228;-2.322;2023-02-01T13:58:35;10.00;73.70
65406;DHT22;52016;51.228;-2.322;2023-02-01T14:26:13;10.30;73.10
65406;DHT22;52016;51.228;-2.322;2023-02-01T14:29:58;10.30;73.50
65406;DHT22;52016;51.228;-2.322;2023-02-01T14:33:42;10.40;73.00
65406;DHT22;52016;51.228;-2.322;2023-02-01T14:37:31;10.40;73.20
65406;DHT22;52016;51.228;-2.322;2023-02-01T14:41:32;10.40;73.20
65406;DHT22;52016;51.228;-2.322;2023-02-01T14:49:05;10.30;73.10
65406;DHT22;52016;51.228;-2.322;2023-02-01T14:56:52;10.30;72.80
65406;DHT22;52016;51.228;-2.322;2023-02-01T15:00:35;10.40;72.70
65406;DHT22;52016;51.228;-2.322;2023-02-01T15:04:18;10.40;72.80
65406;DHT22;52016;51.228;-2.322;2023-02-01T15:08:09;10.40;72.90
65406;DHT22;52016;51.228;-2.322;2023-02-01T15:12:05;10.40;72.60
65406;DHT22;52016;51.228;-2.322;2023-02-01T15:16:14;10.40;72.60
65406;DHT22;52016;51.228;-2.322;2023-02-01T15:20:02;10.40;72.30
65406;DHT22;52016;51.228;-2.322;2023-02-01T15:23:49;10.40;72.20
65406;DHT22;52016;51.228;-2.322;2023-02-01T15:27:33;10.30;72.10
65406;DHT22;52016;51.228;-2.322;2023-02-01T15:31:35;10.30;72.00
65406;DHT22;52016;51.228;-2.322;2023-02-01T15:35:47;10.30;71.50
65406;DHT22;52016;51.228;-2.322;2023-02-01T15:39:29;10.10;72.00
65406;DHT22;52016;51.228;-2.322;2023-02-01T15:43:14;10.10;72.40
65406;DHT22;52016;51.228;-2.322;2023-02-01T15:46:56;10.00;72.60
65406;DHT22;52016;51.228;-2.322;2023-02-01T15:50:39;10.00;72.60
65406;DHT22;52016;51.228;-2.322;2023-02-01T15:54:32;9.90;72.70
65406;DHT22;52016;51.228;-2.322;2023-02-01T15:58:22;9.90;73.00
65406;DHT22;52016;51.228;-2.322;2023-02-01T16:02:04;9.80;73.00
65406;DHT22;52016;51.228;-2.322;2023-02-01T16:05:46;9.80;73.10
65406;DHT22;52016;51.228;-2.322;2023-02-01T16:09:54;9.80;73.20
65406;DHT22;52016;51.228;-2.322;2023-02-01T16:13:36;9.80;73.20
65406;DHT22;52016;51.228;-2.322;2023-02-01T16:17:18;9.80;73.20
65406;DHT22;52016;51.228;-2.322;2023-02-01T16:21:01;9.80;73.30
65406;DHT22;52016;51.228;-2.322;2023-02-01T16:24:43;9.80;73.30
65406;DHT22;52016;51.228;-2.322;2023-02-01T16:28:25;9.80;73.40
65406;DHT22;52016;51.228;-2.322;2023-02-01T16:32:16;9.80;73.90
65406;DHT22;52016;51.228;-2.322;2023-02-01T16:35:59;9.70;73.70
65406;DHT22;52016;51.228;-2.322;2023-02-01T16:39:41;9.70;73.90
65406;DHT22;52016;51.228;-2.322;2023-02-01T16:43:24;9.60;73.90
65406;DHT22;52016;51.228;-2.322;2023-02-01T16:47:25;9.60;74.00
65406;DHT22;52016;51.228;-2.322;2023-02-01T16:51:10;9.60;74.30
65406;DHT22;52016;51.228;-2.322;2023-02-01T16:54:53;9.60;74.10
65406;DHT22;52016;51.228;-2.322;2023-02-01T16:58:35;9.50;74.10
65406;DHT22;52016;51.228;-2.322;2023-02-01T17:02:19;9.50;74.30
65406;DHT22;52016;51.228;-2.322;2023-02-01T17:06:02;9.50;74.40
65406;DHT22;52016;51.228;-2.322;2023-02-01T17:09:44;9.50;74.40
65406;DHT22;52016;51.228;-2.322;2023-02-01T17:13:27;9.50;74.50
65406;DHT22;52016;51.228;-2.322;2023-02-01T17:17:09;9.40;74.50
65406;DHT22;52016;51.228;-2.322;2023-02-01T17:20:51;9.40;74.50
65406;DHT22;52016;51.228;-2.322;2023-02-01T17:24:33;9.40;74.60
65406;DHT22;52016;51.228;-2.322;2023-02-01T17:28:29;9.40;74.60
65406;DHT22;52016;51.228;-2.322;2023-02-01T17:32:20;9.40;74.80
65406;DHT22;52016;51.228;-2.322;2023-02-01T17:36:04;9.30;74.90
65406;DHT22;52016;51.228;-2.322;2023-02-01T17:39:47;9.30;74.90
65406;DHT22;52016;51.228;-2.322;2023-02-01T17:43:35;9.20;75.00
65406;DHT22;52016;51.228;-2.322;2023-02-01T17:47:18;9.20;75.10
65406;DHT22;52016;51.228;-2.322;2023-02-01T17:51:00;9.20;75.20
65406;DHT22;52016;51.228;-2.322;2023-02-01T17:54:42;9.20;75.30
65406;DHT22;52016;51.228;-2.322;2023-02-01T17:58:24;9.20;75.20
65406;DHT22;52016;51.228;-2.322;2023-02-01T18:02:20;9.20;75.20
65406;DHT22;52016;51.228;-2.322;2023-02-01T18:06:03;9.20;75.30
65406;DHT22;52016;51.228;-2.322;2023-02-01T18:09:45;9.20;75.30
65406;DHT22;52016;51.228;-2.322;2023-02-01T18:13:28;9.30;75.30
65406;DHT22;52016;51.228;-2.322;2023-02-01T18:17:11;9.30;75.40
65406;DHT22;52016;51.228;-2.322;2023-02-01T18:20:54;9.20;75.40
65406;DHT22;52016;51.228;-2.322;2023-02-01T18:24:35;9.30;75.50
65406;DHT22;52016;51.228;-2.322;2023-02-01T18:28:18;9.30;75.50
65406;DHT22;52016;51.228;-2.322;2023-02-01T18:32:01;9.30;75.60
65406;DHT22;52016;51.228;-2.322;2023-02-01T18:35:43;9.20;75.70
65406;DHT22;52016;51.228;-2.322;2023-02-01T18:39:25;9.30;75.70
65406;DHT22;52016;51.228;-2.322;2023-02-01T18:43:10;9.30;75.80
65406;DHT22;52016;51.228;-2.322;2023-02-01T18:46:52;9.30;75.80
65406;DHT22;52016;51.228;-2.322;2023-02-01T18:50:37;9.20;75.80
65406;DHT22;52016;51.228;-2.322;2023-02-01T18:54:19;9.30;75.90
65406;DHT22;52016;51.228;-2.322;2023-02-01T18:58:03;9.30;75.90
65406;DHT22;52016;51.228;-2.322;2023-02-01T19:01:47;9.20;76.00
65406;DHT22;52016;51.228;-2.322;2023-02-01T19:05:30;9.20;76.20
65406;DHT22;52016;51.228;-2.322;2023-02-01T19:09:12;9.20;76.10
65406;DHT22;52016;51.228;-2.322;2023-02-01T19:12:54;9.20;76.10
65406;DHT22;52016;51.228;-2.322;2023-02-01T19:16:38;9.20;76.20
65406;DHT22;52016;51.228;-2.322;2023-02-01T19:20:23;9.20;76.20
65406;DHT22;52016;51.228;-2.322;2023-02-01T19:24:05;9.20;76.40
65406;DHT22;52016;51.228;-2.322;2023-02-01T19:27:48;9.20;76.30
65406;DHT22;52016;51.228;-2.322;2023-02-01T19:31:30;9.10;76.30
65406;DHT22;52016;51.228;-2.322;2023-02-01T19:35:15;9.20;76.50
65406;DHT22;52016;51.228;-2.322;2023-02-01T19:39:00;9.20;76.80
65406;DHT22;52016;51.228;-2.322;2023-02-01T19:42:43;9.10;76.50
65406;DHT22;52016;51.228;-2.322;2023-02-01T19:46:25;9.10;76.50
65406;DHT22;52016;51.228;-2.322;2023-02-01T19:50:10;9.20;76.50
65406;DHT22;52016;51.228;-2.322;2023-02-01T19:53:56;9.20;76.50
65406;DHT22;52016;51.228;-2.322;2023-02-01T19:57:38;9.10;76.60
65406;DHT22;52016;51.228;-2.322;2023-02-01T20:01:20;9.10;76.50
65406;DHT22;52016;51.228;-2.322;2023-02-01T20:05:02;9.10;76.50
65406;DHT22;52016;51.228;-2.322;2023-02-01T20:08:44;9.10;76.50
65406;DHT22;52016;51.228;-2.322;2023-02-01T20:12:29;9.10;76.60
65406;DHT22;52016;51.228;-2.322;2023-02-01T20:16:11;9.10;76.60
65406;DHT22;52016;51.228;-2.322;2023-02-01T20:19:53;9.10;76.70
65406;DHT22;52016;51.228;-2.322;2023-02-01T20:23:35;9.10;76.70
65406;DHT22;52016;51.228;-2.322;2023-02-01T20:27:18;9.10;76.70
65406;DHT22;52016;51.228;-2.322;2023-02-01T20:31:01;9.00;76.70
65406;DHT22;52016;51.228;-2.322;2023-02-01T20:34:43;9.10;77.00
65406;DHT22;52016;51.228;-2.322;2023-02-01T20:38:26;9.10;77.00
65406;DHT22;52016;51.228;-2.322;2023-02-01T20:42:09;9.00;77.00
65406;DHT22;52016;51.228;-2.322;2023-02-01T20:45:51;9.00;77.10
65406;DHT22;52016;51.228;-2.322;2023-02-01T20:49:33;9.00;77.10
65406;DHT22;52016;51.228;-2.322;2023-02-01T20:53:16;9.00;77.20
65406;DHT22;52016;51.228;-2.322;2023-02-01T20:57:07;9.00;77.20
65406;DHT22;52016;51.228;-2.322;2023-02-01T21:00:50;8.90;77.30
65406;DHT22;52016;51.228;-2.322;2023-02-01T21:04:32;8.90;77.20
65406;DHT22;52016;51.228;-2.322;2023-02-01T21:08:15;8.90;77.30
65406;DHT22;52016;51.228;-2.322;2023-02-01T21:11:57;8.90;77.80
65406;DHT22;52016;51.228;-2.322;2023-02-01T21:15:42;8.80;77.50
65406;DHT22;52016;51.228;-2.322;2023-02-01T21:19:24;8.80;77.50
65406;DHT22;52016;51.228;-2.322;2023-02-01T21:23:07;8.80;77.70
65406;DHT22;52016;51.228;-2.322;2023-02-01T21:26:49;8.70;77.50
65406;DHT22;52016;51.228;-2.322;2023-02-01T21:30:32;8.70;77.60
65406;DHT22;52016;51.228;-2.322;2023-02-01T21:34:14;8.70;77.80
65406;DHT22;52016;51.228;-2.322;2023-02-01T21:37:56;8.70;78.00
65406;DHT22;52016;51.228;-2.322;2023-02-01T21:41:38;8.70;78.00
65406;DHT22;52016;51.228;-2.322;2023-02-01T21:45:39;8.70;78.10
65406;DHT22;52016;51.228;-2.322;2023-02-01T21:49:31;8.80;77.90
65406;DHT22;52016;51.228;-2.322;2023-02-01T21:53:14;8.80;77.80
65406;DHT22;52016;51.228;-2.322;2023-02-01T21:56:55;8.90;77.80
65406;DHT22;52016;51.228;-2.322;2023-02-01T22:00:38;8.90;77.90
65406;DHT22;52016;51.228;-2.322;2023-02-01T22:04:20;8.90;77.90
65406;DHT22;52016;51.228;-2.322;2023-02-01T22:08:02;8.90;77.90
65406;DHT22;52016;51.228;-2.322;2023-02-01T22:11:45;9.00;78.00
65406;DHT22;52016;51.228;-2.322;2023-02-01T22:15:27;9.00;78.00
65406;DHT22;52016;51.228;-2.322;2023-02-01T22:19:10;9.00;78.00
65406;DHT22;52016;51.228;-2.322;2023-02-01T22:22:54;9.00;78.10
65406;DHT22;52016;51.228;-2.322;2023-02-01T22:26:37;9.00;78.10
65406;DHT22;52016;51.228;-2.322;2023-02-01T22:30:20;9.10;78.10
65406;DHT22;52016;51.228;-2.322;2023-02-01T22:34:02;9.10;78.10
65406;DHT22;52016;51.228;-2.322;2023-02-01T22:37:44;9.00;78.60
65406;DHT22;52016;51.228;-2.322;2023-02-01T22:41:26;9.00;78.30
65406;DHT22;52016;51.228;-2.322;2023-02-01T22:45:09;9.10;78.30
65406;DHT22;52016;51.228;-2.322;2023-02-01T22:48:51;9.00;78.40
65406;DHT22;52016;51.228;-2.322;2023-02-01T22:52:34;9.00;78.30
65406;DHT22;52016;51.228;-2.322;2023-02-01T22:56:16;9.00;78.30
65406;DHT22;52016;51.228;-2.322;2023-02-01T22:59:58;9.10;78.30
65406;DHT22;52016;51.228;-2.322;2023-02-01T23:03:40;9.10;78.30
65406;DHT22;52016;51.228;-2.322;2023-02-01T23:07:23;9.10;78.40
65406;DHT22;52016;51.228;-2.322;2023-02-01T23:11:09;9.10;78.30
65406;DHT22;52016;51.228;-2.322;2023-02-01T23:14:51;9.10;78.50
65406;DHT22;52016;51.228;-2.322;2023-02-01T23:18:53;9.10;78.40
65406;DHT22;52016;51.228;-2.322;2023-02-01T23:22:35;9.10;78.40
65406;DHT22;52016;51.228;-2.322;2023-02-01T23:26:18;9.10;78.30
65406;DHT22;52016;51.228;-2.322;2023-02-01T23:30:02;9.10;78.40
65406;DHT22;52016;51.228;-2.322;2023-02-01T23:33:45;9.10;78.30
65406;DHT22;52016;51.228;-2.322;2023-02-01T23:37:29;9.10;78.40
65406;DHT22;52016;51.228;-2.322;2023-02-01T23:41:13;9.10;78.60
65406;DHT22;52016;51.228;-2.322;2023-02-01T23:44:56;9.10;78.60
65406;DHT22;52016;51.228;-2.322;2023-02-01T23:48:38;9.10;78.50
65406;DHT22;52016;51.228;-2.322;2023-02-01T23:52:20;9.10;78.60
65406;DHT22;52016;51.228;-2.322;2023-02-01T23:56:03;9.10;78.70
65406;DHT22;52016;51.228;-2.322;2023-02-01T23:59:45;9.10;78.60
